Time;durP1;ratioP1;P1;durP2;ratioP2;P2;SDS_P1;SDS_P2;PMS_P1;PMS_P2;Temp;Humidity;BMP_temperature;BMP_pressure;BME280_temperature;BME280_humidity;BME280_pressure;Samples;Min_cycle;Max_cycle;Signal;HPM_P1;HPM_P2
2023/04/06 00:02:15;;;;;;;5.63;3.93;;;;;;;-4.91;71.15;97863.44;6124306;28;20230;-87
2023/04/06 00:05:18;;;;;;;5.23;3.57;;;;;;;-4.15;71.68;97986.38;6133311;28;20284;-88
2023/04/06 00:08:21;;;;;;;5.77;3.33;;;;;;;-4.04;71.59;98019.19;6102663;29;20247;-88
2023/04/06 00:11:23;;;;;;;4.13;3.60;;;;;;;-4.24;71.47;97975.03;6118342;28;20718;-87
2023/04/06 00:14:25;;;;;;;5.57;4.07;;;;;;;-3.62;71.72;98092.50;6127399;28;20709;-88
2023/04/06 00:17:28;;;;;;;5.73;3.77;;;;;;;-4.11;71.55;98012.94;6109906;28;20237;-87
2023/04/06 00:20:30;;;;;;;5.13;3.67;;;;;;;-3.65;71.66;98092.78;6117690;28;20231;-87
2023/04/06 00:23:32;;;;;;;4.73;3.60;;;;;;;-3.65;71.87;98075.38;6102797;28;20222;-88
2023/04/06 00:26:34;;;;;;;6.37;3.63;;;;;;;-4.12;71.87;98022.50;6126472;28;20391;-88
2023/04/06 00:29:36;;;;;;;5.83;3.60;;;;;;;-4.44;71.84;97950.84;6118226;28;20238;-88
2023/04/06 00:32:38;;;;;;;6.03;3.57;;;;;;;-4.57;72.15;97942.56;6118202;28;20317;-88
2023/04/06 00:35:40;;;;;;;7.67;4.10;;;;;;;-4.94;71.78;97904.31;6118167;28;20269;-88
2023/04/06 00:38:42;;;;;;;4.73;3.50;;;;;;;-4.79;72.28;97898.69;6117645;28;20285;-88
2023/04/06 00:41:49;;;;;;;5.97;3.20;;;;;;;-4.48;72.25;97952.13;6117719;28;20230;-87
2023/04/06 00:44:53;;;;;;;6.70;3.63;;;;;;;-4.39;72.24;97978.22;6132593;28;20235;-88
2023/04/06 00:47:56;;;;;;;6.43;3.60;;;;;;;-4.55;72.35;97958.81;6102453;28;20235;-87
2023/04/06 00:50:59;;;;;;;6.37;4.50;;;;;;;-5.59;72.45;97808.97;6134117;28;20230;-88
2023/04/06 00:54:01;;;;;;;4.53;3.90;;;;;;;-4.34;72.33;97982.03;6132764;28;20234;-88
2023/04/06 00:57:06;;;;;;;5.80;4.33;;;;;;;-4.34;72.41;97996.81;6123880;28;20738;-88
2023/04/06 01:00:08;;;;;;;4.70;4.13;;;;;;;-3.92;72.38;98080.53;6133491;28;20238;-88
2023/04/06 01:03:11;;;;;;;5.27;4.10;;;;;;;-4.72;72.78;97931.78;6133462;28;20627;-88
2023/04/06 01:06:16;;;;;;;5.27;4.00;;;;;;;-4.78;72.82;97926.28;6114327;28;20222;-88
2023/04/06 01:09:25;;;;;;;6.63;4.00;;;;;;;-4.27;72.90;98013.50;6132898;28;20262;-88
2023/04/06 01:12:27;;;;;;;7.43;3.90;;;;;;;-6.36;72.82;97690.50;6132941;28;20242;-88
2023/04/06 01:15:32;;;;;;;4.80;3.43;;;;;;;-4.49;73.03;97997.25;6130427;28;20696;-88
2023/04/06 01:18:35;;;;;;;6.13;4.10;;;;;;;-4.85;72.96;97927.81;6131179;28;20317;-88
2023/04/06 01:21:49;;;;;;;7.13;4.13;;;;;;;-4.54;73.14;97970.84;6130577;28;20651;-88
2023/04/06 01:25:07;;;;;;;5.17;3.53;;;;;;;-4.69;73.14;97978.25;6146303;28;20285;-88
2023/04/06 01:28:19;;;;;;;8.03;4.27;;;;;;;-5.64;73.04;97817.16;6117753;28;20255;-88
2023/04/06 01:31:41;;;;;;;4.23;3.80;;;;;;;-5.17;72.86;97866.63;6135022;28;20231;-88
2023/04/06 01:34:43;;;;;;;5.73;4.03;;;;;;;-4.85;72.69;97925.22;6138559;28;20238;-88
2023/04/06 01:37:45;;;;;;;6.13;3.60;;;;;;;-4.83;72.75;97920.69;6132488;28;20314;-87
2023/04/06 01:40:55;;;;;;;9.10;4.10;;;;;;;-5.56;72.97;97817.31;6132445;28;20223;-88
2023/04/06 01:43:59;;;;;;;4.90;3.93;;;;;;;-4.11;72.82;98031.13;6117743;28;20242;-88
2023/04/06 01:47:03;;;;;;;4.53;4.03;;;;;;;-4.45;72.74;97993.41;6131956;28;20239;-87
2023/04/06 01:50:07;;;;;;;6.27;4.33;;;;;;;-4.93;72.91;97907.72;6131693;28;20241;-88
2023/04/06 01:53:16;;;;;;;6.37;4.10;;;;;;;-5.43;72.92;97837.78;6132260;28;20246;-88
2023/04/06 01:56:20;;;;;;;6.17;3.60;;;;;;;-4.58;73.13;97974.72;6130837;28;20246;-88
2023/04/06 01:59:43;;;;;;;5.00;4.17;;;;;;;-5.90;73.43;97783.16;6127882;28;20265;-87
2023/04/06 02:02:53;;;;;;;6.37;3.77;;;;;;;-4.87;73.55;97927.97;6117293;28;20314;-87
2023/04/06 02:05:59;;;;;;;6.73;4.20;;;;;;;-5.01;73.55;97918.00;6131442;28;20245;-88
2023/04/06 02:09:07;;;;;;;5.07;3.97;;;;;;;-4.87;73.73;97930.56;6115777;28;20239;-88
2023/04/06 02:12:10;;;;;;;5.00;3.70;;;;;;;-5.19;73.51;97882.31;6116387;28;20229;-88
2023/04/06 02:15:13;;;;;;;6.63;4.47;;;;;;;-4.90;73.73;97917.03;6132194;28;20717;-88
2023/04/06 02:18:17;;;;;;;8.47;4.37;;;;;;;-4.72;73.72;97955.16;6126977;28;20269;-88
2023/04/06 02:21:20;;;;;;;8.73;4.10;;;;;;;-6.26;74.16;97761.31;6131703;28;20220;-88
2023/04/06 02:24:22;;;;;;;6.83;3.73;;;;;;;-6.82;73.75;97611.66;6131779;28;20508;-88
2023/04/06 02:27:24;;;;;;;5.63;4.20;;;;;;;-5.08;74.18;97920.31;6134828;28;20226;-88
2023/04/06 02:30:26;;;;;;;6.20;3.90;;;;;;;-5.82;74.49;97788.47;6114100;28;20233;-87
2023/04/06 02:33:28;;;;;;;5.17;3.97;;;;;;;-5.37;74.46;97893.53;6133244;28;20234;-87
2023/04/06 02:36:31;;;;;;;6.80;4.50;;;;;;;-4.94;74.87;97938.06;6147824;28;20226;-87
2023/04/06 02:39:33;;;;;;;6.40;5.10;;;;;;;-4.99;74.75;97944.63;6138699;28;20408;-88
2023/04/06 02:42:36;;;;;;;5.47;4.30;;;;;;;-4.41;74.75;98022.56;6146443;28;20710;-88
2023/04/06 02:45:39;;;;;;;6.80;4.60;;;;;;;-4.85;74.97;97956.41;6115802;28;20434;-88
2023/04/06 02:48:43;;;;;;;6.47;4.20;;;;;;;-4.93;75.00;97934.53;6140378;28;20600;-88
2023/04/06 02:51:45;;;;;;;5.30;4.53;;;;;;;-4.39;75.06;98012.84;6122477;28;20226;-88
2023/04/06 02:55:07;;;;;;;5.90;4.30;;;;;;;-5.06;74.68;97927.97;6170639;28;20219;-87
2023/04/06 02:58:09;;;;;;;5.37;4.13;;;;;;;-4.95;74.52;97952.03;6144329;28;20227;-87
2023/04/06 03:01:19;;;;;;;8.40;4.90;;;;;;;-5.95;74.45;97795.75;6162744;28;20266;-88
2023/04/06 03:04:27;;;;;;;6.17;4.30;;;;;;;-4.37;74.65;98013.53;6132937;28;20249;-88
2023/04/06 03:07:31;;;;;;;7.37;4.43;;;;;;;-5.01;75.00;97915.41;6114868;28;20235;-88
2023/04/06 03:10:34;;;;;;;7.33;4.27;;;;;;;-4.74;75.10;97964.03;6131705;28;20234;-88
2023/04/06 03:13:38;;;;;;;5.77;4.53;;;;;;;-4.87;75.07;97956.56;6128176;28;20238;-87
2023/04/06 03:16:41;;;;;;;5.10;4.20;;;;;;;-5.51;74.84;97846.28;6123179;28;20346;-88
2023/04/06 03:19:44;;;;;;;8.10;4.80;;;;;;;-4.68;75.23;97976.47;6113863;28;20226;-88
2023/04/06 03:22:47;;;;;;;8.43;4.43;;;;;;;-5.07;75.19;97919.38;6130325;28;20242;-87
2023/04/06 03:25:52;;;;;;;4.77;4.13;;;;;;;-4.37;75.10;98036.94;6130139;28;20226;-88
2023/04/06 03:28:55;;;;;;;8.30;5.00;;;;;;;-4.95;75.14;97946.00;6114967;28;20245;-88
2023/04/06 03:32:02;;;;;;;7.50;4.43;;;;;;;-4.41;75.02;98030.38;6129560;28;20226;-88
2023/04/06 03:35:11;;;;;;;8.10;4.60;;;;;;;-5.39;74.95;97891.06;6129425;28;20231;-88
2023/04/06 03:38:14;;;;;;;8.67;4.50;;;;;;;-4.57;75.20;97993.72;6122648;28;20257;-87
2023/04/06 03:41:16;;;;;;;5.80;4.23;;;;;;;-4.79;75.54;97976.63;6122738;28;20230;-88
2023/04/06 03:44:26;;;;;;;6.70;4.70;;;;;;;-5.50;75.38;97858.28;6133469;28;20226;-88
2023/04/06 03:47:28;;;;;;;8.03;4.67;;;;;;;-5.14;75.34;97935.63;6119028;28;20241;-88
2023/04/06 03:50:34;;;;;;;7.73;4.67;;;;;;;-5.37;75.55;97909.91;6116855;28;20249;-88
2023/04/06 03:53:37;;;;;;;7.33;4.63;;;;;;;-4.87;75.54;97986.91;6134383;28;20230;-88
2023/04/06 03:56:39;;;;;;;8.67;5.30;;;;;;;-6.70;75.12;97682.25;6112339;28;20238;-88
2023/04/06 03:59:41;;;;;;;7.37;5.00;;;;;;;-5.35;74.78;97873.44;6120397;28;20230;-88
2023/04/06 04:02:43;;;;;;;7.33;4.67;;;;;;;-4.99;75.15;97932.47;6134292;28;20708;-87
2023/04/06 04:05:45;;;;;;;5.63;4.83;;;;;;;-4.34;74.80;98044.44;6115863;28;20269;-88
2023/04/06 04:08:47;;;;;;;6.63;4.43;;;;;;;-5.21;74.56;97881.66;6135270;28;20249;-87
2023/04/06 04:11:49;;;;;;;5.80;4.87;;;;;;;-5.15;74.52;97888.06;6125594;28;20730;-87
2023/04/06 04:14:51;;;;;;;8.13;5.40;;;;;;;-4.63;74.67;97982.09;6118994;28;20321;-88
2023/04/06 04:17:53;;;;;;;7.53;5.37;;;;;;;-4.65;74.56;97973.63;6117008;28;20230;-87
2023/04/06 04:20:55;;;;;;;6.53;5.43;;;;;;;-4.86;74.45;97950.38;6134727;28;20245;-87
2023/04/06 04:23:58;;;;;;;7.40;5.00;;;;;;;-4.08;73.97;98038.69;6134515;28;20237;-88
2023/04/06 04:27:04;;;;;;;5.93;4.67;;;;;;;-5.15;73.73;97875.06;6132408;28;20231;-89
2023/04/06 04:30:08;;;;;;;9.50;4.47;;;;;;;-4.60;73.75;97931.59;6135230;28;20371;-88
2023/04/06 04:33:10;;;;;;;6.10;4.67;;;;;;;-4.98;73.68;97879.56;6133007;28;20826;-88
2023/04/06 04:36:12;;;;;;;7.83;4.57;;;;;;;-6.10;74.07;97708.94;6127039;28;20685;-88
2023/04/06 04:39:17;;;;;;;7.17;5.20;;;;;;;-3.99;73.90;98038.66;6134387;28;20593;-87
2023/04/06 04:42:24;;;;;;;7.17;5.63;;;;;;;-5.93;73.88;97717.81;6118277;28;20226;-86
2023/04/06 04:45:29;;;;;;;7.87;5.33;;;;;;;-4.59;74.15;97967.03;6133331;28;20418;-88
2023/04/06 04:48:34;;;;;;;7.80;4.93;;;;;;;-4.08;74.20;98025.66;6115350;28;20227;-87
2023/04/06 04:51:40;;;;;;;6.17;5.10;;;;;;;-5.52;73.50;97779.72;6148449;28;20655;-88
2023/04/06 04:54:56;;;;;;;7.23;5.43;;;;;;;-4.76;74.13;97908.81;6148927;28;20227;-88
2023/04/06 04:58:02;;;;;;;6.60;5.10;;;;;;;-4.49;74.03;97950.44;6131715;28;20247;-88
2023/04/06 05:01:21;;;;;;;9.03;5.00;;;;;;;-5.30;73.83;97822.75;6123213;28;20239;-87
2023/04/06 05:04:25;;;;;;;6.83;5.40;;;;;;;-4.19;74.12;97991.06;6117925;28;20736;-88
2023/04/06 05:07:30;;;;;;;7.97;5.60;;;;;;;-5.43;73.55;97803.22;6133074;28;20246;-88
2023/04/06 05:10:35;;;;;;;9.00;5.87;;;;;;;-4.50;73.26;97916.81;6117562;28;20235;-88
2023/04/06 05:13:38;;;;;;;6.60;5.20;;;;;;;-4.52;73.54;97900.53;6117344;28;20233;-88
2023/04/06 05:16:54;;;;;;;7.23;5.03;;;;;;;-4.34;73.04;97913.59;6133082;28;20235;-87
2023/04/06 05:19:59;;;;;;;7.57;5.50;;;;;;;-4.26;72.90;97924.13;6116371;28;20230;-87
2023/04/06 05:23:04;;;;;;;7.93;5.33;;;;;;;-4.54;73.46;97882.47;6132211;28;20233;-87
2023/04/06 05:26:08;;;;;;;7.47;5.53;;;;;;;-4.73;73.01;97857.38;6126818;28;20749;-87
2023/04/06 05:29:11;;;;;;;7.03;5.03;;;;;;;-4.07;72.92;97934.47;6126009;28;20231;-88
2023/04/06 05:32:14;;;;;;;9.47;5.27;;;;;;;-3.80;72.97;97979.66;6148415;28;20230;-88
2023/04/06 05:35:18;;;;;;;8.40;5.37;;;;;;;-4.01;73.08;97938.25;6132006;28;20276;-88
2023/04/06 05:38:24;;;;;;;7.33;5.20;;;;;;;-3.94;71.92;97915.91;6117290;28;20242;-88
2023/04/06 05:41:28;;;;;;;8.00;5.10;;;;;;;-2.99;70.55;98014.44;6123735;28;20370;-88
2023/04/06 05:44:31;;;;;;;7.50;4.97;;;;;;;-3.00;70.12;98001.56;6142759;28;20262;-87
2023/04/06 05:47:43;;;;;;;7.57;4.67;;;;;;;-2.90;68.64;97986.69;6147029;28;20231;-88
2023/04/06 05:50:54;;;;;;;6.50;4.60;;;;;;;-3.00;66.98;97924.22;6152501;28;20302;-87
2023/04/06 05:54:04;;;;;;;6.73;4.80;;;;;;;-2.41;64.98;97967.03;6153449;28;20694;-88
2023/04/06 05:57:06;;;;;;;12.20;4.80;;;;;;;-2.55;65.89;97925.84;6161098;28;20230;-88
2023/04/06 06:00:09;;;;;;;7.47;4.70;;;;;;;-2.61;64.92;97901.19;6135031;28;20524;-87
2023/04/06 06:03:22;;;;;;;5.03;4.10;;;;;;;-2.34;65.09;97922.88;6112517;28;20249;-88
2023/04/06 06:06:30;;;;;;;6.90;4.63;;;;;;;-2.14;64.35;97945.16;6132761;28;20230;-88
2023/04/06 06:09:59;;;;;;;6.93;4.47;;;;;;;-1.28;62.32;98046.13;6129097;28;20280;-88
2023/04/06 06:13:06;;;;;;;9.80;4.30;;;;;;;-1.61;61.26;97930.22;6116469;28;20453;-88
2023/04/06 06:16:08;;;;;;;4.40;3.40;;;;;;;-1.03;59.49;97986.88;6127993;28;20234;-88
2023/04/06 06:19:16;;;;;;;6.90;4.17;;;;;;;-0.76;57.82;97977.09;6123551;28;20249;-87
2023/04/06 06:22:19;;;;;;;7.17;4.00;;;;;;;-0.41;55.12;97934.88;6131278;28;20284;-88
2023/04/06 06:25:22;;;;;;;5.37;3.90;;;;;;;-0.08;55.82;97989.81;6131419;28;20264;-88
2023/04/06 06:28:25;;;;;;;5.83;4.20;;;;;;;-0.52;55.18;97920.34;6112936;28;20301;-88
2023/04/06 06:31:27;;;;;;;5.33;3.80;;;;;;;-0.10;54.66;97942.03;6131987;28;20269;-87
2023/04/06 06:34:29;;;;;;;5.83;3.67;;;;;;;-0.31;54.21;97891.03;6146626;28;20242;-88
2023/04/06 06:37:33;;;;;;;5.60;3.97;;;;;;;-0.05;55.30;97940.56;6111506;28;20333;-88
2023/04/06 06:40:37;;;;;;;7.13;3.93;;;;;;;-0.27;53.41;97860.09;6131486;28;20234;-87
2023/04/06 06:43:39;;;;;;;8.60;4.40;;;;;;;0.12;54.19;97930.03;6131525;28;20321;-89
2023/04/06 06:46:43;;;;;;;5.67;4.37;;;;;;;0.20;53.90;97938.69;6130474;28;20230;-88
2023/04/06 06:49:45;;;;;;;4.27;3.83;;;;;;;0.44;53.21;97926.44;6130672;28;20238;-88
2023/04/06 06:52:47;;;;;;;6.90;4.33;;;;;;;0.80;52.20;97939.03;6130802;28;20230;-87
2023/04/06 06:55:50;;;;;;;6.93;4.63;;;;;;;1.01;52.20;97984.63;6114950;28;20247;-88
2023/04/06 06:58:53;;;;;;;8.37;4.30;;;;;;;0.70;52.34;97926.97;6099247;28;20226;-88
2023/04/06 07:01:55;;;;;;;7.10;4.57;;;;;;;1.00;53.00;97958.59;6106577;28;20230;-88
2023/04/06 07:04:57;;;;;;;5.90;4.07;;;;;;;0.49;53.14;97888.25;6130334;28;20438;-88
2023/04/06 07:08:00;;;;;;;6.20;4.00;;;;;;;1.48;50.99;97972.34;6130151;28;20229;-88
2023/04/06 07:11:02;;;;;;;10.30;4.23;;;;;;;1.34;51.02;97939.00;6110396;28;20231;-88
2023/04/06 07:14:04;;;;;;;6.33;4.10;;;;;;;1.62;51.57;97996.97;6130044;28;20340;-88
2023/04/06 07:17:06;;;;;;;8.47;4.63;;;;;;;1.63;50.48;97933.00;6126301;28;20239;-89
2023/04/06 07:20:10;;;;;;;6.20;3.83;;;;;;;1.61;50.88;97927.09;6113000;28;20228;-88
2023/04/06 07:23:12;;;;;;;7.10;4.70;;;;;;;2.30;50.28;97996.00;6098406;28;20743;-88
2023/04/06 07:26:15;;;;;;;7.43;4.23;;;;;;;1.63;50.18;97865.53;6114301;28;20724;-88
2023/04/06 07:29:17;;;;;;;5.93;3.97;;;;;;;2.49;49.47;97958.63;6114124;28;20335;-88
2023/04/06 07:32:20;;;;;;;7.13;4.23;;;;;;;2.92;49.85;98013.19;6114033;28;20794;-89
2023/04/06 07:35:26;;;;;;;8.40;4.70;;;;;;;3.25;50.71;98045.13;6111561;28;20301;-88
2023/04/06 07:38:29;;;;;;;7.53;4.70;;;;;;;3.09;49.33;98007.50;6098124;28;20236;-88
2023/04/06 07:41:31;;;;;;;7.70;4.73;;;;;;;2.84;48.95;97953.59;6098162;28;20236;-88
2023/04/06 07:44:34;;;;;;;4.60;4.17;;;;;;;2.15;48.48;97855.91;6118706;28;20317;-89
2023/04/06 07:47:36;;;;;;;7.03;4.23;;;;;;;3.30;49.31;98040.13;6117465;28;20263;-90
2023/04/06 07:50:38;;;;;;;5.73;4.57;;;;;;;3.10;49.39;98006.53;6113774;28;20335;-89
2023/04/06 07:53:42;;;;;;;5.77;4.17;;;;;;;2.74;49.44;97940.72;6113974;28;20234;-89
2023/04/06 07:56:44;;;;;;;6.03;4.53;;;;;;;1.45;49.30;97741.69;6129549;28;20263;-89
2023/04/06 07:59:46;;;;;;;7.10;4.33;;;;;;;2.19;47.85;97786.22;6122508;28;20244;-88
2023/04/06 08:02:48;;;;;;;6.53;3.97;;;;;;;3.83;47.40;97978.19;6105889;28;20726;-88
2023/04/06 08:05:51;;;;;;;5.93;4.03;;;;;;;4.08;47.60;98002.28;6114261;28;20742;-89
2023/04/06 08:08:53;;;;;;;9.37;4.23;;;;;;;4.24;46.89;97985.38;6128744;28;20242;-89
2023/04/06 08:11:55;;;;;;;5.47;4.03;;;;;;;3.92;46.64;97931.44;6131209;28;20366;-89
2023/04/06 08:14:57;;;;;;;4.70;3.73;;;;;;;4.18;46.43;97943.13;6113650;28;20892;-89
2023/04/06 08:17:59;;;;;;;6.40;3.83;;;;;;;4.49;46.79;97964.63;6111451;28;20231;-89
2023/04/06 08:21:02;;;;;;;6.03;3.70;;;;;;;3.21;46.42;97757.75;6113894;28;20230;-91
2023/04/06 08:24:05;;;;;;;6.37;3.40;;;;;;;5.01;46.50;98023.09;6097401;28;20215;-89
2023/04/06 08:27:08;;;;;;;4.70;3.50;;;;;;;4.77;45.85;98009.38;6113166;28;20219;-88
2023/04/06 08:30:10;;;;;;;5.97;3.83;;;;;;;4.32;46.52;97937.75;6110070;28;20214;-89
2023/04/06 08:33:12;;;;;;;5.57;3.30;;;;;;;5.09;45.32;98023.75;6118488;28;20222;-88
2023/04/06 08:36:16;;;;;;;7.00;4.13;;;;;;;4.73;46.66;97980.94;6118641;28;20305;-89
2023/04/06 08:39:25;;;;;;;8.77;4.10;;;;;;;4.81;46.99;97955.19;6116261;28;20217;-89
2023/04/06 08:42:31;;;;;;;5.00;3.53;;;;;;;4.90;44.91;97913.59;6104431;28;20234;-88
2023/04/06 08:45:33;;;;;;;4.63;3.13;;;;;;;5.64;43.40;97974.25;6115606;28;20238;-88
2023/04/06 08:48:36;;;;;;;6.97;3.33;;;;;;;5.73;43.21;97969.59;6120054;28;20243;-89
2023/04/06 08:51:38;;;;;;;3.47;3.17;;;;;;;6.00;41.65;97973.03;6101687;28;20607;-89
2023/04/06 08:54:40;;;;;;;4.17;2.90;;;;;;;5.88;43.14;97962.25;6102220;28;20719;-89
2023/04/06 08:57:43;;;;;;;3.87;3.07;;;;;;;6.11;42.15;97987.50;6112635;28;20612;-88
2023/04/06 09:00:45;;;;;;;4.90;2.90;;;;;;;5.99;42.98;97931.75;6134381;28;20310;-89
2023/04/06 09:03:50;;;;;;;3.63;3.10;;;;;;;6.16;42.00;98001.72;6117771;28;20717;-89
2023/04/06 09:06:53;;;;;;;3.97;2.77;;;;;;;5.60;41.96;97859.38;6133409;28;20384;-90
2023/04/06 09:09:55;;;;;;;4.33;3.30;;;;;;;4.64;39.91;97674.25;6118106;28;20235;-89
2023/04/06 09:13:07;;;;;;;4.73;2.80;;;;;;;6.28;39.80;97927.03;6140017;28;20242;-88
2023/04/06 09:16:09;;;;;;;4.63;3.17;;;;;;;6.04;40.16;97892.28;6157874;28;20306;-88
2023/04/06 09:19:13;;;;;;;5.77;3.17;;;;;;;6.51;40.36;97926.56;6179383;28;20231;-89
2023/04/06 09:22:16;;;;;;;5.10;3.00;;;;;;;6.40;40.28;97901.53;6164990;28;20815;-89
2023/04/06 09:25:20;;;;;;;5.20;3.47;;;;;;;6.30;40.04;97920.50;6137797;28;20324;-89
2023/04/06 09:28:22;;;;;;;5.87;3.80;;;;;;;6.57;40.34;97973.34;6150494;28;20244;-90
2023/04/06 09:31:32;;;;;;;6.60;3.47;;;;;;;6.43;40.05;97925.75;6118912;28;20586;-89
2023/04/06 09:34:35;;;;;;;5.00;3.20;;;;;;;4.85;39.31;97695.13;6123997;29;20851;-89
2023/04/06 09:37:37;;;;;;;4.27;3.10;;;;;;;4.89;40.20;97671.78;6144947;28;20728;-89
2023/04/06 09:40:51;;;;;;;3.33;2.90;;;;;;;5.94;37.88;97752.56;6152249;28;20719;-88
2023/04/06 09:44:10;;;;;;;4.03;3.00;;;;;;;6.64;38.46;97884.94;6132329;28;20736;-88
2023/04/06 09:47:13;;;;;;;3.40;3.10;;;;;;;5.81;38.14;97760.56;6131818;28;20227;-89
2023/04/06 09:50:16;;;;;;;3.80;3.23;;;;;;;6.13;38.76;97846.06;6116704;28;20236;-88
2023/04/06 09:53:20;;;;;;;4.87;3.30;;;;;;;6.19;39.14;97892.03;6131856;28;20318;-88
2023/04/06 09:56:27;;;;;;;4.60;2.87;;;;;;;5.71;40.35;97855.31;6116027;28;20250;-89
2023/04/06 09:59:45;;;;;;;5.13;3.27;;;;;;;6.38;39.81;97927.41;6112895;28;20435;-89
2023/04/06 10:02:53;;;;;;;5.73;2.87;;;;;;;6.78;40.33;97930.69;6129847;28;20239;-89
2023/04/06 10:06:00;;;;;;;3.00;2.70;;;;;;;6.78;39.29;97885.69;6128705;28;20613;-89
2023/04/06 10:09:07;;;;;;;3.47;2.67;;;;;;;6.44;37.46;97860.41;6115475;28;20243;-89
2023/04/06 10:12:10;;;;;;;3.20;2.57;;;;;;;5.65;40.50;97766.28;6139657;28;20239;-89
2023/04/06 10:15:12;;;;;;;4.30;3.00;;;;;;;6.69;38.34;97886.94;6115704;28;20592;-89
2023/04/06 10:18:16;;;;;;;5.63;2.93;;;;;;;5.53;39.52;97694.78;6139316;28;20219;-89
2023/04/06 10:21:25;;;;;;;4.17;2.50;;;;;;;7.04;37.65;97852.09;6116721;28;20697;-90
2023/04/06 10:24:27;;;;;;;4.33;2.40;;;;;;;7.09;37.75;97823.94;6112693;28;20241;-90
2023/04/06 10:27:30;;;;;;;2.87;2.47;;;;;;;7.05;35.53;97809.53;6131668;28;20305;-89
2023/04/06 10:30:34;;;;;;;2.93;2.43;;;;;;;5.89;36.43;97627.31;6115354;28;20319;-89
2023/04/06 10:33:36;;;;;;;4.27;2.33;;;;;;;6.15;36.14;97753.28;6131631;28;20608;-89
2023/04/06 10:36:38;;;;;;;4.23;2.63;;;;;;;6.87;37.16;97841.22;6130603;28;20746;-89
2023/04/06 10:39:58;;;;;;;3.07;2.47;;;;;;;6.76;36.61;97812.78;6147022;28;20278;-89
2023/04/06 10:43:10;;;;;;;3.23;2.30;;;;;;;7.27;36.41;97862.94;6128818;28;20302;-89
2023/04/06 10:46:12;;;;;;;3.10;2.20;;;;;;;7.25;34.30;97838.50;6128356;28;20263;-88
2023/04/06 10:49:14;;;;;;;4.03;2.13;;;;;;;7.78;35.51;97896.34;6115497;28;20325;-89
2023/04/06 10:52:16;;;;;;;3.17;2.10;;;;;;;6.95;34.50;97730.56;6130384;28;20236;-90
2023/04/06 10:55:20;;;;;;;4.63;2.10;;;;;;;6.90;34.72;97772.78;6130977;28;20241;-90
2023/04/06 10:58:27;;;;;;;2.10;1.83;;;;;;;7.55;34.58;97840.50;6139932;28;20593;-90
2023/04/06 11:01:29;;;;;;;3.87;2.30;;;;;;;7.64;32.88;97905.47;6146570;28;20235;-90
2023/04/06 11:04:31;;;;;;;2.20;1.83;;;;;;;6.07;33.50;97651.22;6114530;28;20241;-89
2023/04/06 11:07:33;;;;;;;2.93;2.17;;;;;;;6.33;33.39;97697.03;6131382;28;20235;-89
2023/04/06 11:10:35;;;;;;;2.83;1.87;;;;;;;7.54;33.69;97834.38;6127173;28;20308;-88
2023/04/06 11:13:51;;;;;;;2.43;2.20;;;;;;;7.73;34.00;97861.72;6130726;28;20272;-89
2023/04/06 11:16:53;;;;;;;3.17;2.10;;;;;;;7.86;33.48;97866.09;6127454;28;20246;-89
2023/04/06 11:19:56;;;;;;;2.47;2.27;;;;;;;8.11;33.07;97866.03;6129414;28;20601;-89
2023/04/06 11:22:59;;;;;;;2.97;2.17;;;;;;;7.72;32.93;97789.31;6124434;28;20318;-90
2023/04/06 11:26:02;;;;;;;3.73;2.13;;;;;;;8.17;33.02;97851.88;6126100;28;20895;-89
2023/04/06 11:29:05;;;;;;;3.27;2.13;;;;;;;7.06;33.46;97670.75;6130633;28;20708;-89
2023/04/06 11:32:08;;;;;;;3.00;2.07;;;;;;;8.33;31.90;97805.34;6115013;28;20316;-89
2023/04/06 11:35:23;;;;;;;3.03;2.53;;;;;;;7.94;31.96;97760.53;6143098;28;20275;-89
2023/04/06 11:38:25;;;;;;;3.57;2.20;;;;;;;8.57;31.87;97832.81;6129586;28;20334;-90
2023/04/06 11:41:29;;;;;;;3.53;2.40;;;;;;;7.85;33.73;97735.31;6138486;28;20603;-89
2023/04/06 11:44:35;;;;;;;2.33;2.13;;;;;;;7.43;31.23;97694.63;6130755;28;20227;-89
2023/04/06 11:47:37;;;;;;;2.43;1.90;;;;;;;7.93;32.92;97735.03;6130509;28;20243;-89
2023/04/06 11:50:40;;;;;;;2.50;2.30;;;;;;;8.07;31.68;97727.69;6137805;28;20647;-89
2023/04/06 11:53:45;;;;;;;3.93;2.37;;;;;;;8.28;31.58;97808.69;6123992;28;20247;-89
2023/04/06 11:56:47;;;;;;;3.23;2.47;;;;;;;7.79;31.93;97738.06;6115838;28;20236;-89
2023/04/06 11:59:50;;;;;;;3.60;2.70;;;;;;;8.21;32.07;97762.81;6114574;28;20264;-89
2023/04/06 12:02:52;;;;;;;4.10;2.43;;;;;;;7.77;34.09;97709.09;6133224;28;20580;-89
2023/04/06 12:05:54;;;;;;;4.00;2.50;;;;;;;8.22;31.55;97751.97;6135943;28;20407;-89
2023/04/06 12:08:57;;;;;;;3.90;2.40;;;;;;;6.90;31.78;97568.88;6117960;28;20249;-89
2023/04/06 12:11:59;;;;;;;3.00;2.70;;;;;;;8.18;31.61;97736.75;6139812;28;20769;-89
2023/04/06 12:15:01;;;;;;;3.73;2.67;;;;;;;7.65;31.08;97648.06;6133977;28;20684;-90
2023/04/06 12:18:03;;;;;;;2.53;2.33;;;;;;;8.45;30.81;97759.25;6133324;28;20214;-89
2023/04/06 12:21:05;;;;;;;4.47;2.50;;;;;;;8.21;30.74;97696.47;6150601;28;20221;-89
2023/04/06 12:24:08;;;;;;;4.43;2.63;;;;;;;7.56;31.65;97614.94;6134123;28;20353;-89
2023/04/06 12:27:11;;;;;;;3.67;2.23;;;;;;;7.49;30.82;97598.31;6135971;28;20253;-90
2023/04/06 12:30:13;;;;;;;4.13;2.83;;;;;;;7.75;30.99;97640.38;6117866;28;20594;-89
2023/04/06 12:33:15;;;;;;;2.97;2.43;;;;;;;8.52;31.04;97724.63;6142360;28;20222;-88
2023/04/06 12:36:20;;;;;;;2.93;2.53;;;;;;;8.59;29.99;97782.97;6117911;28;20218;-89
2023/04/06 12:39:23;;;;;;;3.37;2.50;;;;;;;8.57;31.67;97774.41;6134244;28;20278;-89
2023/04/06 12:42:26;;;;;;;3.37;2.33;;;;;;;8.78;32.36;97765.94;6143402;28;20230;-89
2023/04/06 12:45:28;;;;;;;3.47;2.57;;;;;;;8.38;29.69;97652.38;6125911;28;20234;-89
2023/04/06 12:48:31;;;;;;;2.67;2.40;;;;;;;8.75;30.42;97758.41;6134152;28;20236;-90
2023/04/06 12:51:33;;;;;;;2.57;2.37;;;;;;;7.84;31.74;97577.25;6135000;28;20689;-90
2023/04/06 12:54:36;;;;;;;3.50;2.20;;;;;;;8.33;31.14;97649.56;6118735;28;20223;-89
2023/04/06 12:57:38;;;;;;;3.27;2.53;;;;;;;9.23;30.18;97757.44;6134347;28;20315;-88
2023/04/06 13:00:40;;;;;;;5.90;2.60;;;;;;;8.46;30.74;97661.84;6133452;28;20242;-89
2023/04/06 13:03:43;;;;;;;3.00;2.70;;;;;;;8.42;30.60;97685.41;6140734;28;20594;-88
2023/04/06 13:06:45;;;;;;;2.73;2.40;;;;;;;9.02;29.20;97762.28;6134724;28;20237;-89
2023/04/06 13:09:49;;;;;;;3.60;2.50;;;;;;;8.56;31.12;97666.59;6137947;28;20225;-89
2023/04/06 13:12:51;;;;;;;3.40;2.70;;;;;;;8.18;29.56;97580.19;6160546;28;20452;-88
2023/04/06 13:15:55;;;;;;;2.67;2.47;;;;;;;8.47;29.76;97619.16;6162576;28;20249;-89
2023/04/06 13:18:57;;;;;;;3.10;2.80;;;;;;;8.86;30.52;97691.22;6164645;28;20218;-88
2023/04/06 13:21:59;;;;;;;3.43;2.53;;;;;;;7.34;30.73;97455.63;6150058;28;20710;-89
2023/04/06 13:25:01;;;;;;;4.97;3.00;;;;;;;8.16;30.06;97563.69;6149794;28;20241;-89
2023/04/06 13:28:03;;;;;;;2.93;2.47;;;;;;;9.29;30.15;97730.72;6135441;28;20300;-88
2023/04/06 13:31:06;;;;;;;4.23;2.43;;;;;;;7.55;30.78;97490.59;6141942;28;20234;-90
2023/04/06 13:34:08;;;;;;;3.63;2.33;;;;;;;8.65;29.23;97628.84;6118407;28;20238;-88
2023/04/06 13:37:13;;;;;;;2.53;2.33;;;;;;;8.66;29.69;97654.34;6133028;28;20777;-89
2023/04/06 13:40:15;;;;;;;4.50;2.60;;;;;;;8.18;30.35;97574.91;6132388;28;20620;-89
2023/04/06 13:43:20;;;;;;;2.70;2.50;;;;;;;7.97;30.78;97573.56;6124588;28;20241;-88
2023/04/06 13:46:23;;;;;;;3.27;2.30;;;;;;;8.07;29.76;97559.75;6115755;28;20294;-89
2023/04/06 13:49:26;;;;;;;3.57;2.50;;;;;;;8.82;29.57;97686.59;6118474;28;20238;-89
2023/04/06 13:52:28;;;;;;;3.03;2.33;;;;;;;7.97;30.88;97592.94;6115317;28;20230;-89
2023/04/06 13:55:31;;;;;;;4.03;2.90;;;;;;;8.55;30.74;97662.31;6132978;28;20234;-89
2023/04/06 13:58:33;;;;;;;2.77;2.57;;;;;;;8.27;30.55;97626.56;6116058;28;20334;-89
2023/04/06 14:01:36;;;;;;;3.00;2.70;;;;;;;8.69;30.70;97685.78;6115358;28;20242;-89
2023/04/06 14:04:39;;;;;;;3.90;2.70;;;;;;;7.93;30.07;97532.63;6115690;28;20238;-89
2023/04/06 14:07:41;;;;;;;4.70;3.00;;;;;;;8.51;29.90;97636.22;6112641;28;20234;-88
2023/04/06 14:10:43;;;;;;;3.10;2.80;;;;;;;9.11;30.57;97712.22;6131365;28;20235;-89
2023/04/06 14:13:45;;;;;;;3.57;3.10;;;;;;;8.31;30.47;97611.81;6116453;28;20237;-89
2023/04/06 14:16:47;;;;;;;3.47;2.90;;;;;;;8.20;31.11;97586.88;6099368;28;20230;-89
2023/04/06 14:19:50;;;;;;;3.70;2.60;;;;;;;8.90;31.11;97671.13;6114408;28;20246;-89
2023/04/06 14:22:54;;;;;;;3.70;2.90;;;;;;;8.13;30.26;97548.25;6122999;28;20234;-88
2023/04/06 14:26:07;;;;;;;3.27;2.63;;;;;;;9.14;29.80;97673.78;6114563;28;20317;-88
2023/04/06 14:29:09;;;;;;;3.30;2.60;;;;;;;8.71;30.99;97648.34;6099595;28;20649;-89
2023/04/06 14:32:11;;;;;;;4.10;2.73;;;;;;;9.17;30.92;97727.28;6122975;28;20234;-90
2023/04/06 14:35:13;;;;;;;4.70;2.90;;;;;;;8.43;30.80;97610.03;6115099;28;20246;-90